Time;durP1;ratioP1;P1;durP2;ratioP2;P2;SDS_P1;SDS_P2;PMS_P1;PMS_P2;Temp;Humidity;BMP_temperature;BMP_pressure;BME280_temperature;BME280_humidity;BME280_pressure;Samples;Min_cycle;Max_cycle;Signal;HPM_P1;HPM_P2
2023/11/26 00:01:53;;;;;;;1.00;0.63;;;5.70;99.90;;;;;;5002113;28;20231;-86
2023/11/26 00:04:21;;;;;;;0.97;0.97;;;5.80;99.90;;;;;;4985061;28;20712;-88
2023/11/26 00:06:48;;;;;;;0.30;0.30;;;5.80;99.90;;;;;;4988610;28;20281;-87
2023/11/26 00:09:15;;;;;;;0.30;0.30;;;6.00;99.90;;;;;;4988027;28;20694;-88
2023/11/26 00:11:41;;;;;;;0.30;0.30;;;6.00;99.90;;;;;;5002454;28;20670;-87
2023/11/26 00:14:06;;;;;;;2.13;0.80;;;6.00;99.90;;;;;;4984767;28;20743;-85
2023/11/26 00:16:37;;;;;;;0.20;0.20;;;6.10;99.90;;;;;;4968054;28;20219;-86
2023/11/26 00:19:03;;;;;;;0.30;0.30;;;6.10;99.90;;;;;;4984728;28;20548;-84
2023/11/26 00:21:29;;;;;;;2.10;0.53;;;6.20;99.90;;;;;;4984698;28;20586;-86
2023/11/26 00:23:55;;;;;;;0.40;0.40;;;6.20;99.90;;;;;;5000834;28;20206;-85
2023/11/26 00:26:21;;;;;;;0.33;0.33;;;6.20;99.90;;;;;;4967187;28;20219;-85
2023/11/26 00:28:47;;;;;;;0.87;0.57;;;6.10;99.90;;;;;;4983396;28;20667;-86
2023/11/26 00:31:13;;;;;;;0.53;0.53;;;6.20;99.90;;;;;;4966720;28;20680;-85
2023/11/26 00:33:44;;;;;;;0.60;0.60;;;6.20;99.90;;;;;;4984138;28;20235;-86
2023/11/26 00:36:12;;;;;;;0.30;0.30;;;6.20;99.90;;;;;;4984072;28;20772;-86
2023/11/26 00:38:38;;;;;;;0.30;0.30;;;6.30;99.90;;;;;;4983794;28;20450;-86
2023/11/26 00:41:03;;;;;;;0.30;0.30;;;6.20;99.90;;;;;;4962921;28;20223;-86
2023/11/26 00:43:29;;;;;;;0.30;0.30;;;6.20;99.90;;;;;;4968902;28;20773;-86
2023/11/26 00:45:55;;;;;;;1.70;1.03;;;6.20;99.90;;;;;;4977924;28;20592;-86
2023/11/26 00:48:20;;;;;;;2.73;0.73;;;6.10;99.90;;;;;;4970108;28;20275;-85
2023/11/26 00:50:46;;;;;;;0.47;0.47;;;6.10;99.90;;;;;;4984364;28;20191;-85
2023/11/26 00:53:12;;;;;;;0.20;0.20;;;6.10;99.90;;;;;;4976203;28;20231;-87
2023/11/26 00:55:38;;;;;;;0.40;0.40;;;6.10;99.90;;;;;;4987780;28;20219;-85
2023/11/26 00:58:03;;;;;;;2.10;1.00;;;6.20;99.90;;;;;;4994530;28;20250;-85
2023/11/26 01:00:29;;;;;;;0.60;0.40;;;6.20;99.90;;;;;;4972376;28;20229;-86
2023/11/26 01:02:56;;;;;;;0.70;0.70;;;6.10;99.90;;;;;;4987134;28;20253;-85
2023/11/26 01:05:22;;;;;;;0.50;0.50;;;6.20;99.90;;;;;;5002063;28;20273;-85
2023/11/26 01:07:47;;;;;;;0.30;0.30;;;6.30;99.90;;;;;;4984477;28;21086;-86
2023/11/26 01:10:13;;;;;;;0.20;0.20;;;6.40;99.90;;;;;;4952957;28;20426;-85
2023/11/26 01:12:39;;;;;;;0.50;0.50;;;6.40;99.90;;;;;;4995121;28;21176;-85
2023/11/26 01:15:06;;;;;;;0.30;0.30;;;6.40;99.90;;;;;;4946416;28;20703;-86
2023/11/26 01:17:32;;;;;;;0.27;0.27;;;6.50;99.90;;;;;;4990226;28;20215;-86
2023/11/26 01:19:58;;;;;;;0.30;0.30;;;6.40;99.90;;;;;;4974208;28;20293;-87
2023/11/26 01:22:24;;;;;;;0.20;0.20;;;6.50;99.90;;;;;;4973721;28;20235;-84
2023/11/26 01:24:52;;;;;;;0.20;0.20;;;6.50;99.90;;;;;;4989122;28;20223;-87
2023/11/26 01:27:17;;;;;;;0.27;0.27;;;6.50;99.90;;;;;;4972208;28;20587;-87
2023/11/26 01:29:43;;;;;;;1.27;1.17;;;6.60;99.90;;;;;;4971894;28;20195;-86
2023/11/26 01:32:09;;;;;;;0.20;0.20;;;6.80;99.90;;;;;;4985336;28;20231;-86
2023/11/26 01:34:35;;;;;;;0.20;0.20;;;6.70;99.90;;;;;;5004512;28;20283;-87
2023/11/26 01:37:01;;;;;;;0.40;0.40;;;6.70;99.90;;;;;;4971189;28;20745;-85
2023/11/26 01:39:27;;;;;;;0.20;0.20;;;6.70;99.90;;;;;;4986853;28;20183;-85
2023/11/26 01:41:53;;;;;;;0.30;0.30;;;6.70;99.90;;;;;;4986694;28;20212;-86
2023/11/26 01:44:18;;;;;;;0.30;0.30;;;6.60;99.90;;;;;;4986729;28;20357;-85
2023/11/26 01:46:44;;;;;;;0.23;0.23;;;6.90;99.90;;;;;;4970178;28;20219;-85
2023/11/26 01:49:10;;;;;;;0.20;0.20;;;6.90;99.90;;;;;;4988153;28;20687;-85
2023/11/26 01:51:36;;;;;;;0.30;0.30;;;7.00;99.90;;;;;;4970896;28;20276;-85
2023/11/26 01:54:03;;;;;;;0.20;0.20;;;6.90;99.90;;;;;;4991603;28;20370;-85
2023/11/26 01:56:29;;;;;;;0.30;0.30;;;6.90;99.90;;;;;;4983467;28;20219;-85
2023/11/26 01:58:57;;;;;;;0.77;0.40;;;6.90;99.90;;;;;;4991252;28;20281;-83
2023/11/26 02:01:23;;;;;;;0.20;0.20;;;6.90;99.90;;;;;;5017907;28;20230;-84
2023/11/26 02:03:49;;;;;;;0.57;0.57;;;6.80;99.90;;;;;;5010369;28;20211;-84
2023/11/26 02:06:16;;;;;;;0.30;0.30;;;6.80;99.90;;;;;;5027154;28;20198;-85
2023/11/26 02:08:42;;;;;;;2.03;1.93;;;6.70;99.90;;;;;;5010646;28;20230;-85
2023/11/26 02:11:08;;;;;;;0.30;0.30;;;6.60;99.90;;;;;;5005337;28;20214;-85
2023/11/26 02:14:03;;;;;;;0.20;0.20;;;6.60;99.90;;;;;;5011941;28;20630;-85
2023/11/26 02:16:29;;;;;;;0.20;0.20;;;6.60;99.90;;;;;;5001423;28;20251;-86
2023/11/26 02:18:57;;;;;;;0.30;0.30;;;6.60;99.90;;;;;;4999852;28;20239;-86
2023/11/26 02:21:23;;;;;;;0.13;0.13;;;6.60;99.90;;;;;;4993633;28;20250;-85
2023/11/26 02:23:49;;;;;;;0.10;0.10;;;6.60;99.90;;;;;;4993668;28;20183;-86
2023/11/26 02:26:14;;;;;;;0.20;0.20;;;6.60;99.90;;;;;;5018247;28;20245;-86
2023/11/26 02:28:42;;;;;;;16.53;0.67;;;6.60;99.90;;;;;;5024586;28;20220;-87
2023/11/26 02:31:09;;;;;;;0.20;0.20;;;6.60;99.90;;;;;;5032139;28;20246;-86
2023/11/26 02:33:37;;;;;;;0.10;0.10;;;6.70;99.90;;;;;;5026022;28;20615;-86
2023/11/26 02:36:04;;;;;;;0.20;0.20;;;6.70;99.90;;;;;;5010161;28;20194;-87
2023/11/26 02:38:30;;;;;;;0.20;0.20;;;6.70;99.90;;;;;;5008856;28;20773;-85
2023/11/26 02:40:55;;;;;;;0.43;0.43;;;6.80;99.90;;;;;;5005092;28;20219;-85
2023/11/26 02:43:21;;;;;;;0.23;0.23;;;6.80;99.90;;;;;;5012577;28;20868;-85
2023/11/26 02:45:51;;;;;;;0.20;0.20;;;6.80;99.90;;;;;;4993015;28;20223;-84
2023/11/26 02:48:19;;;;;;;0.20;0.20;;;6.80;99.90;;;;;;5010639;28;20201;-85
2023/11/26 02:50:47;;;;;;;4.03;1.20;;;6.80;99.90;;;;;;5003109;28;20201;-85
2023/11/26 02:53:13;;;;;;;1.03;0.30;;;6.80;99.90;;;;;;5001332;28;20214;-85
2023/11/26 02:55:39;;;;;;;22.17;0.70;;;6.80;99.90;;;;;;5025576;28;20663;-85
2023/11/26 02:58:05;;;;;;;0.20;0.20;;;6.80;99.90;;;;;;5023815;28;20248;-85
2023/11/26 03:00:31;;;;;;;0.57;0.57;;;6.80;99.90;;;;;;4993065;28;20225;-85
2023/11/26 03:02:56;;;;;;;0.40;0.37;;;6.90;99.90;;;;;;5026497;28;20197;-85
2023/11/26 03:05:22;;;;;;;0.17;0.17;;;7.00;99.90;;;;;;5026070;28;20259;-86
2023/11/26 03:07:57;;;;;;;0.40;0.40;;;7.00;99.90;;;;;;5025813;28;20264;-84
2023/11/26 03:13:20;;;;;;;0.20;0.20;;;6.90;99.90;;;;;;5025725;28;20348;-86
2023/11/26 03:15:48;;;;;;;1.03;1.03;;;6.80;99.90;;;;;;4996227;28;20211;-85
2023/11/26 03:18:15;;;;;;;2.20;2.10;;;6.80;99.90;;;;;;5026491;28;20193;-86
2023/11/26 03:20:41;;;;;;;0.23;0.23;;;6.70;99.90;;;;;;5001354;28;20247;-85
2023/11/26 03:23:11;;;;;;;0.43;0.43;;;6.70;99.90;;;;;;5025741;28;20218;-86
2023/11/26 03:25:38;;;;;;;0.20;0.20;;;6.70;99.90;;;;;;5027637;28;20214;-85
2023/11/26 03:28:08;;;;;;;0.20;0.20;;;6.70;99.90;;;;;;5025258;28;20224;-84
2023/11/26 03:30:34;;;;;;;0.23;0.23;;;6.70;99.90;;;;;;5009737;28;20552;-87
2023/11/26 03:33:00;;;;;;;0.20;0.20;;;6.80;99.90;;;;;;5025340;28;20183;-88
2023/11/26 03:35:26;;;;;;;0.30;0.30;;;6.80;99.90;;;;;;5022519;28;20254;-87
2023/11/26 03:37:54;;;;;;;0.20;0.20;;;6.80;99.90;;;;;;5008239;28;20744;-86
2023/11/26 03:40:20;;;;;;;0.20;0.20;;;6.80;99.90;;;;;;5017634;28;20225;-85
2023/11/26 03:42:47;;;;;;;7.53;0.50;;;6.80;99.90;;;;;;5024730;28;20214;-87
2023/11/26 03:45:13;;;;;;;0.17;0.17;;;6.80;99.90;;;;;;5024883;28;20187;-87
2023/11/26 03:47:39;;;;;;;0.30;0.30;;;6.80;99.90;;;;;;5019370;28;20232;-87
2023/11/26 03:50:12;;;;;;;0.20;0.20;;;6.80;99.90;;;;;;4991739;28;20289;-85
2023/11/26 03:52:39;;;;;;;2.73;0.57;;;6.80;99.90;;;;;;5018892;28;20214;-84
2023/11/26 03:55:06;;;;;;;0.40;0.40;;;6.90;99.90;;;;;;5024169;28;20210;-88
2023/11/26 03:57:32;;;;;;;0.10;0.10;;;6.80;99.90;;;;;;5017390;28;20174;-88
2023/11/26 04:00:01;;;;;;;0.20;0.20;;;6.90;99.90;;;;;;5016242;28;20568;-88
2023/11/26 04:02:29;;;;;;;0.40;0.40;;;7.00;99.90;;;;;;5015492;28;20230;-87
2023/11/26 04:04:55;;;;;;;0.20;0.20;;;7.00;99.90;;;;;;4990827;28;20211;-86
2023/11/26 04:07:20;;;;;;;0.20;0.20;;;7.00;99.90;;;;;;5001517;28;20218;-85
2023/11/26 04:09:48;;;;;;;0.40;0.40;;;7.10;99.90;;;;;;5004315;28;20215;-84
2023/11/26 04:12:14;;;;;;;3.30;1.93;;;7.00;99.90;;;;;;4989100;28;20198;-86
2023/11/26 04:14:53;;;;;;;0.20;0.20;;;7.10;99.90;;;;;;4988812;28;20219;-87
2023/11/26 04:17:19;;;;;;;0.10;0.10;;;7.10;99.90;;;;;;5022003;28;20286;-88
2023/11/26 04:19:45;;;;;;;3.10;0.60;;;7.00;99.90;;;;;;4991927;28;20310;-87
2023/11/26 04:22:10;;;;;;;0.13;0.13;;;7.00;99.90;;;;;;5006689;28;20226;-87
2023/11/26 04:24:37;;;;;;;0.10;0.10;;;6.90;99.90;;;;;;4987301;28;21101;-86
2023/11/26 04:27:03;;;;;;;0.10;0.10;;;6.80;99.90;;;;;;4985652;28;20188;-87
2023/11/26 04:29:29;;;;;;;1.37;1.37;;;6.90;99.90;;;;;;4971669;28;20219;-86
2023/11/26 04:31:55;;;;;;;0.20;0.20;;;6.80;99.90;;;;;;4971443;28;20219;-86
2023/11/26 04:34:20;;;;;;;0.20;0.20;;;6.80;99.90;;;;;;4953648;28;20723;-86
2023/11/26 04:36:46;;;;;;;0.30;0.30;;;6.90;99.90;;;;;;5003216;28;20335;-87
2023/11/26 04:39:12;;;;;;;0.20;0.20;;;6.90;99.90;;;;;;4987291;28;20187;-86
2023/11/26 04:41:38;;;;;;;1.50;0.50;;;7.00;99.90;;;;;;4985770;28;20617;-86
2023/11/26 04:44:04;;;;;;;0.20;0.20;;;7.10;99.90;;;;;;4963735;28;20290;-86
2023/11/26 04:46:29;;;;;;;3.60;1.07;;;7.00;99.90;;;;;;4971156;28;20221;-86
2023/11/26 04:48:55;;;;;;;0.20;0.20;;;7.10;99.90;;;;;;4985452;28;20673;-87
2023/11/26 04:51:21;;;;;;;0.20;0.20;;;7.00;99.90;;;;;;4987317;28;20697;-87
2023/11/26 04:53:47;;;;;;;0.57;0.57;;;7.00;99.90;;;;;;4972387;28;20187;-86
2023/11/26 04:56:13;;;;;;;0.30;0.30;;;7.00;99.90;;;;;;4954845;28;21052;-87
2023/11/26 04:58:39;;;;;;;14.33;1.90;;;7.10;99.90;;;;;;4975709;28;20243;-87
2023/11/26 05:01:05;;;;;;;0.20;0.20;;;7.10;99.90;;;;;;5008744;28;20563;-85
2023/11/26 05:03:30;;;;;;;0.27;0.27;;;7.20;99.90;;;;;;5010684;28;20596;-84
2023/11/26 05:05:56;;;;;;;0.40;0.40;;;7.10;99.90;;;;;;4987759;28;20190;-85
2023/11/26 05:08:22;;;;;;;0.30;0.30;;;7.20;99.90;;;;;;5026755;28;20273;-83
2023/11/26 05:10:48;;;;;;;0.50;0.50;;;7.20;99.90;;;;;;5009807;28;20222;-84
2023/11/26 05:13:16;;;;;;;0.20;0.20;;;7.20;99.90;;;;;;5009878;28;20745;-83
2023/11/26 05:15:42;;;;;;;1.93;1.07;;;7.20;99.90;;;;;;5011244;28;20229;-84
2023/11/26 05:18:08;;;;;;;0.20;0.20;;;7.20;99.90;;;;;;5010865;28;20194;-83
2023/11/26 05:20:33;;;;;;;0.77;0.47;;;7.20;99.90;;;;;;5007993;28;20576;-83
2023/11/26 05:22:59;;;;;;;0.20;0.20;;;7.10;99.90;;;;;;5010189;28;20704;-84
2023/11/26 05:25:25;;;;;;;0.30;0.30;;;7.00;99.90;;;;;;4993882;28;20291;-84
2023/11/26 05:27:52;;;;;;;0.20;0.20;;;7.00;99.90;;;;;;5009598;28;20225;-84
2023/11/26 05:30:18;;;;;;;0.30;0.30;;;7.00;99.90;;;;;;4994066;28;20190;-84
2023/11/26 05:32:46;;;;;;;0.77;0.37;;;6.90;99.90;;;;;;5026654;28;20962;-84
2023/11/26 05:35:14;;;;;;;0.20;0.20;;;6.90;99.90;;;;;;5015003;28;20228;-85
2023/11/26 05:37:40;;;;;;;0.30;0.30;;;6.90;99.90;;;;;;4996138;28;20301;-85
2023/11/26 05:40:12;;;;;;;0.30;0.30;;;7.00;99.90;;;;;;5020563;28;20214;-85
2023/11/26 05:42:38;;;;;;;0.37;0.37;;;6.90;99.90;;;;;;5027137;28;20231;-86
2023/11/26 05:45:04;;;;;;;0.30;0.30;;;7.00;99.90;;;;;;5026257;28;20206;-86
2023/11/26 05:47:33;;;;;;;0.20;0.20;;;7.00;99.90;;;;;;5019868;28;20214;-85
2023/11/26 05:49:59;;;;;;;0.33;0.33;;;7.00;99.90;;;;;;5025605;28;20210;-85
2023/11/26 05:52:26;;;;;;;0.67;0.63;;;7.10;99.90;;;;;;5026685;28;20211;-85
2023/11/26 05:54:52;;;;;;;0.83;0.83;;;7.20;99.90;;;;;;5025832;28;20694;-85
2023/11/26 05:57:19;;;;;;;0.60;0.60;;;7.10;99.90;;;;;;5025064;28;20183;-84
2023/11/26 05:59:45;;;;;;;0.43;0.37;;;7.10;99.90;;;;;;5019934;28;20243;-85
2023/11/26 06:02:11;;;;;;;0.97;0.80;;;7.10;99.90;;;;;;4988092;28;20231;-85
2023/11/26 06:04:37;;;;;;;0.60;0.60;;;7.10;99.90;;;;;;4983360;28;20703;-85
2023/11/26 06:07:05;;;;;;;0.47;0.47;;;7.10;99.90;;;;;;4957229;28;20226;-86
2023/11/26 06:09:32;;;;;;;1.17;0.80;;;7.10;99.90;;;;;;4988894;28;20183;-87
2023/11/26 06:11:57;;;;;;;0.30;0.30;;;7.10;99.90;;;;;;4978813;28;20729;-86
2023/11/26 06:14:24;;;;;;;2.20;2.10;;;7.10;99.90;;;;;;4997120;28;20231;-85
2023/11/26 06:16:50;;;;;;;0.47;0.47;;;7.10;99.90;;;;;;4956982;28;20800;-85
2023/11/26 06:19:19;;;;;;;0.83;0.83;;;7.00;99.90;;;;;;4989214;28;20222;-85
2023/11/26 06:21:46;;;;;;;0.37;0.37;;;7.10;99.90;;;;;;5006779;28;20722;-85
2023/11/26 06:24:12;;;;;;;0.20;0.20;;;7.10;99.90;;;;;;4990072;28;20214;-84
2023/11/26 06:26:38;;;;;;;0.93;0.50;;;7.20;99.90;;;;;;4988461;28;20207;-86
2023/11/26 06:29:05;;;;;;;0.77;0.47;;;7.20;99.90;;;;;;4989576;28;20227;-85
2023/11/26 06:31:31;;;;;;;11.63;1.70;;;7.20;99.90;;;;;;4973666;28;20211;-86
2023/11/26 06:33:59;;;;;;;0.73;0.73;;;7.20;99.90;;;;;;4989076;28;21025;-85
2023/11/26 06:36:25;;;;;;;0.20;0.20;;;7.20;99.90;;;;;;4980144;28;20274;-86
2023/11/26 06:38:52;;;;;;;1.67;1.57;;;7.20;99.90;;;;;;5006461;28;20246;-85
2023/11/26 06:41:27;;;;;;;0.10;0.10;;;7.20;99.90;;;;;;4997776;28;20235;-85
2023/11/26 06:43:54;;;;;;;0.20;0.20;;;7.40;99.90;;;;;;4972961;28;20215;-84
2023/11/26 06:46:22;;;;;;;0.20;0.20;;;7.50;99.90;;;;;;4961109;28;20222;-84
2023/11/26 06:48:50;;;;;;;0.30;0.30;;;7.80;99.90;;;;;;5002886;28;20247;-85
2023/11/26 06:51:17;;;;;;;3.50;2.30;;;7.80;99.90;;;;;;4993481;28;20187;-85
2023/11/26 06:53:44;;;;;;;0.20;0.20;;;7.80;99.90;;;;;;4989292;28;20330;-86
2023/11/26 06:56:09;;;;;;;0.20;0.20;;;7.80;99.90;;;;;;4988897;28;20272;-85
2023/11/26 06:58:39;;;;;;;3.10;0.63;;;7.70;99.90;;;;;;4999873;28;20955;-85
2023/11/26 07:01:05;;;;;;;0.10;0.10;;;7.80;99.90;;;;;;5025493;28;20238;-85
2023/11/26 07:03:32;;;;;;;0.20;0.20;;;7.80;99.90;;;;;;5008031;28;20539;-85
2023/11/26 07:06:09;;;;;;;0.20;0.20;;;7.80;99.90;;;;;;5023726;28;20187;-85
2023/11/26 07:08:38;;;;;;;0.40;0.40;;;7.80;99.90;;;;;;5008419;28;20273;-85
2023/11/26 07:11:23;;;;;;;0.13;0.13;;;7.70;99.90;;;;;;5023899;28;20237;-84
2023/11/26 07:13:51;;;;;;;0.20;0.20;;;7.80;99.90;;;;;;4997966;28;20697;-85
2023/11/26 07:16:18;;;;;;;0.17;0.17;;;7.80;99.90;;;;;;5020084;28;20211;-85
2023/11/26 07:18:44;;;;;;;0.93;0.73;;;7.80;99.90;;;;;;5037684;28;20218;-85
2023/11/26 07:21:10;;;;;;;0.30;0.30;;;7.80;99.90;;;;;;5023117;28;20246;-84
2023/11/26 07:23:36;;;;;;;0.10;0.10;;;7.90;99.90;;;;;;5014428;28;20743;-85
2023/11/26 07:26:12;;;;;;;0.20;0.20;;;8.00;99.90;;;;;;4983060;28;20262;-85
2023/11/26 07:28:42;;;;;;;0.17;0.17;;;8.00;99.90;;;;;;4996586;28;20292;-84
2023/11/26 07:31:16;;;;;;;0.23;0.23;;;7.90;99.90;;;;;;5014571;28;20234;-86
2023/11/26 07:33:41;;;;;;;0.37;0.37;;;7.90;99.90;;;;;;5016372;28;20227;-84
2023/11/26 07:36:17;;;;;;;1.43;1.40;;;7.90;99.90;;;;;;4998314;28;20255;-86
2023/11/26 07:38:43;;;;;;;4.70;1.50;;;7.80;99.90;;;;;;5025179;28;20714;-84
2023/11/26 07:41:10;;;;;;;1.80;1.70;;;7.80;99.90;;;;;;5008526;28;20250;-86
2023/11/26 07:43:43;;;;;;;0.17;0.17;;;7.70;99.90;;;;;;5025256;28;20253;-84
2023/11/26 07:46:10;;;;;;;0.30;0.30;;;7.60;99.90;;;;;;5025245;28;20752;-85
2023/11/26 07:48:36;;;;;;;0.20;0.20;;;7.60;99.90;;;;;;4999650;28;20195;-85
2023/11/26 07:51:03;;;;;;;0.30;0.30;;;7.60;99.90;;;;;;5025082;28;20205;-86
2023/11/26 07:53:33;;;;;;;1.90;0.90;;;7.60;99.90;;;;;;5008851;28;20219;-86
2023/11/26 07:56:02;;;;;;;4.37;1.33;;;7.70;99.90;;;;;;5015461;28;20215;-84
2023/11/26 07:58:29;;;;;;;0.30;0.30;;;7.80;99.90;;;;;;5058404;28;20329;-85
2023/11/26 08:00:55;;;;;;;0.20;0.20;;;7.80;99.90;;;;;;5014156;28;20235;-85
2023/11/26 08:03:25;;;;;;;0.40;0.40;;;7.80;99.90;;;;;;4987117;28;20231;-85
2023/11/26 08:05:55;;;;;;;0.30;0.30;;;7.90;99.90;;;;;;5007465;28;20217;-84
2023/11/26 08:08:22;;;;;;;0.20;0.20;;;7.90;99.90;;;;;;5022240;28;20222;-85
2023/11/26 08:10:49;;;;;;;0.20;0.20;;;7.90;99.90;;;;;;5022881;28;20226;-86
2023/11/26 08:13:15;;;;;;;0.30;0.30;;;7.80;99.90;;;;;;4990797;28;20211;-84
2023/11/26 08:15:41;;;;;;;1.50;1.03;;;7.90;99.90;;;;;;5015057;28;21270;-85
2023/11/26 08:18:07;;;;;;;0.63;0.63;;;7.90;99.90;;;;;;5014982;28;20771;-84
2023/11/26 08:20:33;;;;;;;0.30;0.30;;;7.90;99.90;;;;;;5029803;28;20218;-85
2023/11/26 08:23:02;;;;;;;0.33;0.33;;;7.90;99.90;;;;;;5001111;28;20269;-85
2023/11/26 08:25:33;;;;;;;1.57;1.47;;;8.00;99.90;;;;;;5024663;28;20245;-86
2023/11/26 08:28:01;;;;;;;0.70;0.70;;;8.00;99.90;;;;;;5023538;28;20213;-84
2023/11/26 08:30:41;;;;;;;0.20;0.20;;;8.10;99.90;;;;;;5006987;28;20507;-87
2023/11/26 08:33:07;;;;;;;0.20;0.20;;;8.20;99.90;;;;;;5010123;28;20187;-87
2023/11/26 08:35:34;;;;;;;0.30;0.30;;;8.20;99.90;;;;;;5023306;28;20268;-87
2023/11/26 08:38:01;;;;;;;3.60;0.60;;;8.30;99.90;;;;;;4999129;28;20221;-87
2023/11/26 08:40:33;;;;;;;0.80;0.80;;;8.30;99.90;;;;;;5013636;28;20272;-87
2023/11/26 08:43:04;;;;;;;0.20;0.20;;;8.20;99.90;;;;;;5023529;28;20214;-86
2023/11/26 08:45:32;;;;;;;0.60;0.60;;;8.30;99.90;;;;;;4999677;28;20233;-86
2023/11/26 08:47:59;;;;;;;0.30;0.30;;;8.20;99.90;;;;;;4990998;28;20198;-87
2023/11/26 08:50:25;;;;;;;0.10;0.10;;;8.20;99.90;;;;;;5019423;28;20264;-86
2023/11/26 08:52:55;;;;;;;0.50;0.50;;;8.30;99.90;;;;;;5006490;28;20602;-88
2023/11/26 08:55:21;;;;;;;0.93;0.70;;;8.20;99.90;;;;;;5023660;28;20313;-86
2023/11/26 08:57:46;;;;;;;0.30;0.30;;;8.30;99.90;;;;;;5005203;28;20619;-87
2023/11/26 09:00:12;;;;;;;1.90;1.60;;;8.20;99.90;;;;;;4971416;28;20187;-88
2023/11/26 09:02:40;;;;;;;0.20;0.20;;;8.20;99.90;;;;;;5003207;28;20230;-88
2023/11/26 09:05:09;;;;;;;0.10;0.10;;;8.20;99.90;;;;;;4970980;28;20329;-87
2023/11/26 09:07:40;;;;;;;0.20;0.20;;;8.20;99.90;;;;;;4987234;28;20234;-87
2023/11/26 09:10:07;;;;;;;0.20;0.20;;;8.20;99.90;;;;;;4986738;28;20214;-87
2023/11/26 09:12:33;;;;;;;0.40;0.40;;;8.30;99.90;;;;;;4984984;28;20240;-87
2023/11/26 09:14:59;;;;;;;0.33;0.33;;;8.40;99.90;;;;;;5002860;28;20188;-88
2023/11/26 09:17:26;;;;;;;0.63;0.63;;;8.40;99.90;;;;;;4985666;28;20796;-89
2023/11/26 09:20:03;;;;;;;0.20;0.20;;;8.50;99.90;;;;;;4984651;28;20678;-88
2023/11/26 09:22:30;;;;;;;0.10;0.10;;;8.50;99.90;;;;;;4967072;28;20310;-87
2023/11/26 09:24:56;;;;;;;0.20;0.20;;;8.40;99.90;;;;;;4999860;28;20212;-88
2023/11/26 09:27:23;;;;;;;7.37;0.33;;;8.40;99.90;;;;;;4982359;28;20192;-87
2023/11/26 09:29:49;;;;;;;0.20;0.20;;;8.50;99.90;;;;;;4965924;28;20192;-87
2023/11/26 09:32:14;;;;;;;0.20;0.20;;;8.50;99.90;;;;;;4967052;28;20211;-87
2023/11/26 09:34:40;;;;;;;0.70;0.70;;;8.40;99.90;;;;;;4965758;28;20810;-88
2023/11/26 09:37:08;;;;;;;0.10;0.10;;;8.30;99.90;;;;;;4963048;28;20215;-87
2023/11/26 09:39:34;;;;;;;0.27;0.27;;;8.30;99.90;;;;;;4968524;28;20537;-86
2023/11/26 09:42:04;;;;;;;0.20;0.20;;;8.40;99.90;;;;;;4982935;28;20226;-88
2023/11/26 09:44:30;;;;;;;0.20;0.20;;;8.40;99.90;;;;;;4975296;28;20231;-87
2023/11/26 09:46:57;;;;;;;0.20;0.20;;;8.40;99.90;;;;;;4986872;28;20230;-86
2023/11/26 09:49:23;;;;;;;0.30;0.30;;;8.40;99.90;;;;;;4989101;28;20781;-86
2023/11/26 09:51:57;;;;;;;2.30;0.60;;;8.50;99.90;;;;;;4988931;28;20226;-89
2023/11/26 09:54:25;;;;;;;0.80;0.63;;;8.50;99.90;;;;;;4989689;28;20184;-88
2023/11/26 09:56:55;;;;;;;0.30;0.30;;;8.60;99.90;;;;;;4990828;28;20285;-90
2023/11/26 09:59:29;;;;;;;0.20;0.20;;;8.80;99.90;;;;;;5013699;28;20600;-89
2023/11/26 10:01:55;;;;;;;0.20;0.20;;;8.90;99.90;;;;;;5026239;28;20250;-88
2023/11/26 10:04:22;;;;;;;0.20;0.20;;;8.90;99.90;;;;;;5002263;28;20242;-87
2023/11/26 10:06:55;;;;;;;0.20;0.20;;;8.90;99.90;;;;;;5024334;28;20215;-87
2023/11/26 10:09:22;;;;;;;1.00;0.67;;;8.90;99.90;;;;;;5007975;28;20550;-90
2023/11/26 10:11:49;;;;;;;0.13;0.13;;;8.80;99.90;;;;;;5025308;28;20881;-91
2023/11/26 10:14:16;;;;;;;0.10;0.10;;;8.80;99.90;;;;;;5023320;28;20225;-91
2023/11/26 10:16:43;;;;;;;2.63;0.97;;;8.80;99.90;;;;;;5023366;28;20322;-89
2023/11/26 10:19:22;;;;;;;0.40;0.40;;;8.80;99.90;;;;;;5041561;28;20222;-91
2023/11/26 10:21:56;;;;;;;0.30;0.30;;;8.80;99.90;;;;;;5016236;28;20234;-88
2023/11/26 10:24:27;;;;;;;0.53;0.30;;;8.90;99.90;;;;;;5011357;28;20815;-89
2023/11/26 10:26:54;;;;;;;7.40;0.60;;;8.90;99.90;;;;;;5023898;28;20186;-91
2023/11/26 10:29:30;;;;;;;0.40;0.40;;;8.90;99.90;;;;;;5008493;28;20199;-90
2023/11/26 10:31:59;;;;;;;0.43;0.43;;;9.00;99.90;;;;;;5024387;28;20234;-89
2023/11/26 10:34:25;;;;;;;0.20;0.20;;;8.90;99.90;;;;;;5022854;28;20280;-90
2023/11/26 10:36:51;;;;;;;3.63;1.20;;;8.90;99.90;;;;;;5047009;28;20226;-91
2023/11/26 10:39:17;;;;;;;0.00;0.00;;;9.00;99.90;;;;;;5026662;28;21113;-88
2023/11/26 10:41:47;;;;;;;0.13;0.13;;;9.10;99.90;;;;;;5024676;28;20308;-89
2023/11/26 10:44:17;;;;;;;0.37;0.37;;;9.10;99.90;;;;;;5026183;28;20229;-89
2023/11/26 10:46:48;;;;;;;0.20;0.20;;;9.20;99.90;;;;;;5026303;28;20222;-88
2023/11/26 10:49:40;;;;;;;0.20;0.20;;;9.30;99.90;;;;;;5009515;28;20268;-90
2023/11/26 10:52:30;;;;;;;1.03;1.03;;;9.30;99.90;;;;;;5025417;28;20219;-90
2023/11/26 10:55:29;;;;;;;5.87;0.57;;;9.30;99.90;;;;;;5042264;28;20218;-90
2023/11/26 10:58:17;;;;;;;0.10;0.10;;;9.40;99.90;;;;;;4993260;28;20276;-90
2023/11/26 11:00:47;;;;;;;0.30;0.30;;;9.40;99.90;;;;;;5004697;28;20246;-88
2023/11/26 11:03:14;;;;;;;0.20;0.20;;;9.40;99.90;;;;;;4989552;28;20210;-91
2023/11/26 11:05:41;;;;;;;0.27;0.27;;;9.40;99.90;;;;;;4983976;28;20242;-89
2023/11/26 11:08:08;;;;;;;0.10;0.10;;;9.50;99.90;;;;;;5006509;28;20223;-90
2023/11/26 11:10:40;;;;;;;0.30;0.30;;;9.50;99.90;;;;;;4984564;28;20823;-90
2023/11/26 11:13:14;;;;;;;0.40;0.40;;;9.40;99.90;;;;;;5006059;28;20679;-88
2023/11/26 11:15:40;;;;;;;0.20;0.20;;;9.20;99.90;;;;;;5007342;28;20242;-87
2023/11/26 11:18:26;;;;;;;0.10;0.10;;;8.90;99.90;;;;;;4989423;28;20868;-88
2023/11/26 11:21:01;;;;;;;0.77;0.70;;;8.80;99.90;;;;;;4988866;28;20215;-88
2023/11/26 11:23:39;;;;;;;0.10;0.10;;;8.60;99.90;;;;;;4989049;28;20310;-88
2023/11/26 11:26:09;;;;;;;0.80;0.80;;;8.60;99.90;;;;;;4995572;28;20245;-89
2023/11/26 11:28:46;;;;;;;0.50;0.50;;;8.60;99.90;;;;;;5004757;28;20306;-88
2023/11/26 11:31:14;;;;;;;0.27;0.27;;;8.50;99.90;;;;;;5007011;28;20848;-88
2023/11/26 11:34:00;;;;;;;0.50;0.50;;;8.60;99.90;;;;;;4972473;28;20573;-90
2023/11/26 11:36:41;;;;;;;0.40;0.40;;;8.70;99.90;;;;;;4988258;28;20219;-90
2023/11/26 11:39:15;;;;;;;0.10;0.10;;;8.80;99.90;;;;;;4983225;28;20191;-90
2023/11/26 11:41:59;;;;;;;0.77;0.37;;;9.00;99.90;;;;;;4988268;28;20439;-91
2023/11/26 11:44:31;;;;;;;0.10;0.10;;;9.00;99.90;;;;;;5004111;28;20339;-91
2023/11/26 11:46:58;;;;;;;0.20;0.20;;;9.10;99.90;;;;;;5004314;28;21132;-91
2023/11/26 11:49:32;;;;;;;0.40;0.40;;;9.10;99.90;;;;;;4979425;28;20231;-91
2023/11/26 11:51:59;;;;;;;0.20;0.20;;;9.10;99.90;;;;;;4988771;28;20282;-89
2023/11/26 11:54:45;;;;;;;1.33;1.23;;;9.20;99.90;;;;;;5004167;28;20189;-91
2023/11/26 11:57:16;;;;;;;0.10;0.10;;;9.10;99.90;;;;;;5005878;28;20183;-92
2023/11/26 11:59:47;;;;;;;0.17;0.17;;;9.10;99.90;;;;;;5008747;28;20238;-92
2023/11/26 12:02:12;;;;;;;1.00;0.40;;;9.00;99.90;;;;;;5023644;28;20218;-88
2023/11/26 12:04:52;;;;;;;3.13;0.83;;;9.20;99.90;;;;;;4989783;28;20281;-89
2023/11/26 12:07:19;;;;;;;0.10;0.10;;;9.20;99.90;;;;;;5024149;28;20911;-89
2023/11/26 12:09:46;;;;;;;0.20;0.20;;;9.20;99.90;;;;;;4992076;28;20265;-86
2023/11/26 12:12:18;;;;;;;0.20;0.20;;;9.10;99.90;;;;;;5001564;28;20957;-86
2023/11/26 12:14:44;;;;;;;0.37;0.37;;;9.10;99.90;;;;;;5024157;28;20214;-85
2023/11/26 12:17:10;;;;;;;8.63;0.80;;;9.20;99.90;;;;;;4981674;28;20229;-86
2023/11/26 12:19:38;;;;;;;0.70;0.50;;;9.20;99.90;;;;;;5011145;28;20329;-85
2023/11/26 12:22:04;;;;;;;0.77;0.77;;;9.30;99.90;;;;;;5021938;28;20595;-86
2023/11/26 12:24:31;;;;;;;1.40;1.30;;;9.20;99.90;;;;;;5004859;28;20190;-86
2023/11/26 12:26:57;;;;;;;10.83;0.37;;;9.20;99.90;;;;;;5006891;28;20279;-85
2023/11/26 12:29:27;;;;;;;0.30;0.30;;;9.10;99.90;;;;;;5007400;28;20210;-84
2023/11/26 12:31:58;;;;;;;2.97;0.53;;;9.10;99.90;;;;;;5014860;28;20217;-84
2023/11/26 12:34:24;;;;;;;0.20;0.20;;;9.10;99.90;;;;;;5007342;28;20234;-85
2023/11/26 12:36:52;;;;;;;0.20;0.20;;;9.10;99.90;;;;;;5015697;28;20218;-85
2023/11/26 12:39:20;;;;;;;1.20;1.20;;;9.10;99.90;;;;;;5006333;28;20582;-85
2023/11/26 12:41:49;;;;;;;1.00;0.93;;;9.10;99.90;;;;;;5039435;28;20576;-85
2023/11/26 12:44:17;;;;;;;0.63;0.60;;;9.00;99.90;;;;;;5016128;28;20214;-86
2023/11/26 12:46:44;;;;;;;0.20;0.20;;;9.00;99.90;;;;;;5006095;28;20222;-86
2023/11/26 12:49:17;;;;;;;0.40;0.37;;;8.90;99.90;;;;;;5021618;28;20195;-86
2023/11/26 12:51:44;;;;;;;0.40;0.40;;;8.90;99.90;;;;;;5007139;28;20238;-86
2023/11/26 12:54:11;;;;;;;0.50;0.20;;;9.00;99.90;;;;;;5023914;28;20282;-87
2023/11/26 12:56:39;;;;;;;0.30;0.30;;;9.00;99.90;;;;;;5023280;28;20301;-89
2023/11/26 12:59:06;;;;;;;0.30;0.30;;;9.00;99.90;;;;;;5023353;28;20234;-87
2023/11/26 13:01:35;;;;;;;0.30;0.30;;;9.00;99.90;;;;;;4974200;28;20234;-85
2023/11/26 13:04:05;;;;;;;0.20;0.20;;;9.00;99.90;;;;;;4988459;28;20299;-87
2023/11/26 13:06:32;;;;;;;0.80;0.80;;;8.90;99.90;;;;;;5003758;28;20714;-86